createdAt,value
2018-01-14T00:02:22.642Z,0.70
2018-01-14T00:04:53.627Z,0.50
2018-01-14T00:07:25.410Z,0.39
2018-01-14T00:09:55.162Z,0.35
2018-01-14T00:12:24.487Z,0.37
2018-01-14T00:14:53.498Z,0.31
2018-01-14T00:17:22.694Z,0.17
2018-01-14T00:19:51.474Z,0.16
2018-01-14T00:22:20.374Z,0.04
2018-01-14T00:24:49.415Z,0.04
2018-01-14T00:27:19.479Z,-0.10
2018-01-14T00:29:51.295Z,-0.07
2018-01-14T00:32:21.488Z,-0.10
2018-01-14T00:34:50.494Z,-0.09
2018-01-14T00:37:20.172Z,-0.22
2018-01-14T00:39:48.947Z,-0.16
2018-01-14T00:42:18.101Z,-0.25
2018-01-14T00:44:47.453Z,-0.26
2018-01-14T00:47:16.376Z,-0.22
2018-01-14T00:49:46.606Z,-0.29
2018-01-14T00:52:16.688Z,-0.36
2018-01-14T00:54:45.982Z,-0.37
2018-01-14T00:57:14.874Z,-0.41
2018-01-14T00:59:44.207Z,-0.54
2018-01-14T01:02:13.380Z,-0.51
2018-01-14T01:04:43.262Z,-0.57
2018-01-14T01:07:12.554Z,-0.60
2018-01-14T01:09:45.142Z,-0.52
2018-01-14T01:12:14.248Z,-0.54
2018-01-14T01:14:43.249Z,-0.65
2018-01-14T01:17:13.269Z,-0.61
2018-01-14T01:19:42.852Z,-0.70
2018-01-14T01:22:12.028Z,-0.71
2018-01-14T01:24:41.957Z,-0.73
2018-01-14T01:27:10.842Z,-0.61
2018-01-14T01:29:39.975Z,-0.80
2018-01-14T01:32:08.965Z,-0.84
2018-01-14T01:34:37.741Z,-0.84
2018-01-14T01:37:06.848Z,-0.86
2018-01-14T01:39:36.554Z,-0.87
2018-01-14T01:42:05.589Z,-0.87
2018-01-14T01:44:34.726Z,-0.91
2018-01-14T01:47:04.248Z,-0.94
2018-01-14T01:49:33.350Z,-0.93
2018-01-14T01:52:02.709Z,-0.98
2018-01-14T01:54:31.723Z,-0.98
2018-01-14T01:57:00.816Z,-0.98
2018-01-14T01:59:30.659Z,-0.95
2018-01-14T02:02:05.723Z,-0.97
2018-01-14T02:04:35.081Z,-0.87
2018-01-14T02:07:04.765Z,-0.99
2018-01-14T02:09:33.979Z,-0.96
2018-01-14T02:12:02.894Z,-0.88
2018-01-14T02:14:32.292Z,-0.87
2018-01-14T02:17:01.597Z,-0.83
2018-01-14T02:19:30.696Z,-0.75
2018-01-14T02:21:59.585Z,-0.65
2018-01-14T02:24:28.885Z,-0.74
2018-01-14T02:26:57.930Z,-0.68
2018-01-14T02:29:27.277Z,-0.58
2018-01-14T02:31:56.166Z,-0.57
2018-01-14T02:34:26.004Z,-0.56
2018-01-14T02:36:55.178Z,-0.59
2018-01-14T02:39:24.672Z,-0.51
2018-01-14T02:41:53.725Z,-0.51
2018-01-14T02:44:23.257Z,-0.55
2018-01-14T02:46:52.372Z,-0.57
2018-01-14T02:49:21.178Z,-0.55
2018-01-14T02:51:50.222Z,-0.62
2018-01-14T02:54:19.253Z,-0.40
2018-01-14T02:56:48.190Z,-0.53
2018-01-14T02:59:17.219Z,-0.56
2018-01-14T03:01:46.266Z,-0.43
2018-01-14T03:04:15.377Z,-0.35
2018-01-14T03:06:54.360Z,-0.47
2018-01-14T03:09:23.092Z,-0.39
2018-01-14T03:11:52.547Z,-0.49
2018-01-14T03:14:21.431Z,-0.38
2018-01-14T03:16:50.472Z,-0.42
2018-01-14T03:19:19.552Z,-0.52
2018-01-14T03:21:48.669Z,-0.44
2018-01-14T03:24:17.814Z,-0.42
2018-01-14T03:26:46.773Z,-0.36
2018-01-14T03:29:15.838Z,-0.46
2018-01-14T03:31:44.814Z,-0.30
2018-01-14T03:34:13.931Z,-0.57
2018-01-14T03:36:43.156Z,-0.56
2018-01-14T03:39:12.515Z,-0.47
2018-01-14T03:41:41.485Z,-0.53
2018-01-14T03:44:10.374Z,-0.65
2018-01-14T03:46:39.262Z,-0.63
2018-01-14T03:49:08.177Z,-0.64
2018-01-14T03:51:37.255Z,-0.44
2018-01-14T03:54:06.492Z,-0.61
2018-01-14T03:56:35.609Z,-0.72
2018-01-14T03:59:04.658Z,-0.83
2018-01-14T04:01:33.685Z,-0.87
2018-01-14T04:04:03.025Z,-0.96
2018-01-14T04:06:32.019Z,-1.03
2018-01-14T04:09:00.898Z,-1.04
2018-01-14T04:11:29.997Z,-1.11
2018-01-14T04:13:59.102Z,-1.28
2018-01-14T04:16:28.599Z,-1.20
2018-01-14T04:18:57.708Z,-1.20
2018-01-14T04:21:26.807Z,-1.22
2018-01-14T04:23:55.825Z,-1.21
2018-01-14T04:26:24.922Z,-1.33
2018-01-14T04:28:53.997Z,-1.31
2018-01-14T04:31:23.177Z,-1.45
2018-01-14T04:33:52.260Z,-1.42
2018-01-14T04:36:21.357Z,-1.38
2018-01-14T04:38:50.378Z,-1.32
2018-01-14T04:41:19.566Z,-1.44
2018-01-14T04:43:48.510Z,-1.51
2018-01-14T04:46:17.546Z,-1.48
2018-01-14T04:48:46.531Z,-1.47
2018-01-14T04:51:15.788Z,-1.49
2018-01-14T04:53:45.109Z,-1.55
2018-01-14T04:56:13.893Z,-1.44
2018-01-14T04:58:43.234Z,-1.54
2018-01-14T05:04:07.404Z,-1.59
2018-01-14T05:06:36.275Z,-1.53
2018-01-14T05:09:05.545Z,-1.63
2018-01-14T05:11:34.104Z,-1.60
2018-01-14T05:14:02.935Z,-1.43
2018-01-14T05:16:31.900Z,-1.58
2018-01-14T05:19:00.408Z,-1.58
2018-01-14T05:21:29.034Z,-1.65
2018-01-14T05:23:57.937Z,-1.64
2018-01-14T05:26:26.628Z,-1.68
2018-01-14T05:28:55.445Z,-1.57
2018-01-14T05:31:24.090Z,-1.72
2018-01-14T05:33:52.998Z,-1.67
2018-01-14T05:36:21.799Z,-1.75
2018-01-14T05:38:50.603Z,-1.75
2018-01-14T05:41:19.404Z,-1.59
2018-01-14T05:43:48.400Z,-1.73
2018-01-14T05:46:17.762Z,-1.82
2018-01-14T05:48:46.372Z,-1.77
2018-01-14T05:51:15.116Z,-1.81
2018-01-14T05:53:43.796Z,-1.82
2018-01-14T05:56:12.503Z,-1.71
2018-01-14T05:58:41.314Z,-1.83
2018-01-14T06:01:10.224Z,-1.84
2018-01-14T06:03:39.131Z,-1.86
2018-01-14T06:06:07.867Z,-1.84
2018-01-14T06:08:36.486Z,-1.84
2018-01-14T06:11:05.228Z,-1.72
2018-01-14T06:13:33.841Z,-1.87
2018-01-14T06:16:02.760Z,-1.91
2018-01-14T06:18:31.437Z,-1.91
2018-01-14T06:21:00.347Z,-1.84
2018-01-14T06:23:29.140Z,-1.96
2018-01-14T06:25:58.319Z,-1.86
2018-01-14T06:28:27.249Z,-1.95
2018-01-14T06:30:55.793Z,-1.95
2018-01-14T06:33:24.439Z,-2.02
2018-01-14T06:35:53.255Z,-1.87
2018-01-14T06:38:21.957Z,-2.01
2018-01-14T06:40:50.697Z,-2.02
2018-01-14T06:43:19.295Z,-2.03
2018-01-14T06:45:48.055Z,-2.02
2018-01-14T06:48:16.704Z,-2.10
2018-01-14T06:50:45.428Z,-1.97
2018-01-14T06:53:14.409Z,-2.09
2018-01-14T06:55:43.023Z,-2.08
2018-01-14T06:58:11.577Z,-2.01
2018-01-14T07:00:40.182Z,-1.99
2018-01-14T07:03:09.214Z,-2.05
2018-01-14T07:05:38.212Z,-2.11
2018-01-14T07:08:07.226Z,-2.13
2018-01-14T07:10:35.906Z,-2.09
2018-01-14T07:13:04.740Z,-2.08
2018-01-14T07:15:33.685Z,-2.10
2018-01-14T07:18:02.370Z,-2.07
2018-01-14T07:20:31.107Z,-2.06
2018-01-14T07:22:59.721Z,-2.06
2018-01-14T07:25:28.356Z,-2.12
2018-01-14T07:27:56.997Z,-2.03
2018-01-14T07:30:26.082Z,-2.04
2018-01-14T07:32:54.756Z,-2.07
2018-01-14T07:35:23.535Z,-2.05
2018-01-14T07:37:52.603Z,-2.07
2018-01-14T07:40:21.267Z,-1.96
2018-01-14T07:42:49.955Z,-2.01
2018-01-14T07:45:18.656Z,-1.99
2018-01-14T07:47:47.312Z,-1.95
2018-01-14T07:50:16.259Z,-1.90
2018-01-14T07:52:45.062Z,-1.94
2018-01-14T07:55:13.823Z,-1.88
2018-01-14T07:57:42.667Z,-1.86
2018-01-14T08:00:11.574Z,-1.87
2018-01-14T08:02:40.627Z,-1.90
2018-01-14T08:05:09.325Z,-1.86
2018-01-14T08:07:38.191Z,-1.84
2018-01-14T08:10:07.111Z,-1.58
2018-01-14T08:12:35.761Z,-1.72
2018-01-14T08:15:04.681Z,-1.53
2018-01-14T08:17:33.433Z,-1.61
2018-01-14T08:20:02.240Z,-1.58
2018-01-14T08:22:31.008Z,-1.56
2018-01-14T08:24:59.847Z,-1.39
2018-01-14T08:27:28.589Z,-1.39
2018-01-14T08:29:57.455Z,-1.43
2018-01-14T08:32:26.167Z,-1.41
2018-01-14T08:34:55.034Z,-1.44
2018-01-14T08:37:23.953Z,-1.45
2018-01-14T08:39:52.459Z,-1.49
2018-01-14T08:42:21.258Z,-1.43
2018-01-14T08:44:50.340Z,-1.31
2018-01-14T08:47:19.092Z,-1.11
2018-01-14T08:49:47.896Z,-1.20
2018-01-14T08:52:16.841Z,-1.14
2018-01-14T08:54:45.650Z,-1.15
2018-01-14T08:57:14.597Z,-1.11
2018-01-14T08:59:43.444Z,-1.14
2018-01-14T09:02:12.226Z,-1.07
2018-01-14T09:04:41.035Z,-0.72
2018-01-14T09:07:09.862Z,-0.80
2018-01-14T09:09:38.456Z,-0.76
2018-01-14T09:12:10.168Z,-0.66
2018-01-14T09:14:45.524Z,-0.89
2018-01-14T09:17:14.388Z,-0.52
2018-01-14T09:19:42.879Z,-0.46
2018-01-14T09:22:11.548Z,-0.89
2018-01-14T09:24:40.383Z,-0.70
2018-01-14T09:27:09.714Z,-0.53
2018-01-14T09:29:38.791Z,-0.79
2018-01-14T09:32:07.663Z,-0.60
2018-01-14T09:34:36.416Z,-0.53
2018-01-14T09:37:05.090Z,-0.84
2018-01-14T09:39:33.927Z,-0.75
2018-01-14T09:42:03.016Z,-0.58
2018-01-14T09:44:31.568Z,-0.42
2018-01-14T09:47:00.592Z,-0.36
2018-01-14T09:49:29.327Z,-0.30
2018-01-14T09:51:58.137Z,-0.12
2018-01-14T09:54:26.911Z,0.14
2018-01-14T09:56:55.819Z,0.16
2018-01-14T09:59:24.573Z,0.06
2018-01-14T10:01:53.195Z,-0.30
2018-01-14T10:04:22.960Z,0.03
2018-01-14T10:06:51.695Z,-0.06
2018-01-14T10:09:20.456Z,0.13
2018-01-14T10:11:49.641Z,0.29
2018-01-14T10:14:19.250Z,0.57
2018-01-14T10:16:47.928Z,0.59
2018-01-14T10:19:16.520Z,0.17
2018-01-14T10:21:45.451Z,1.37
2018-01-14T10:24:14.236Z,1.54
2018-01-14T10:26:43.040Z,1.98
2018-01-14T10:29:11.792Z,1.62
2018-01-14T10:31:40.327Z,1.81
2018-01-14T10:34:09.017Z,1.39
2018-01-14T10:36:37.742Z,1.77
2018-01-14T10:39:06.591Z,1.08
2018-01-14T10:41:35.295Z,1.54
2018-01-14T10:44:04.192Z,0.70
2018-01-14T10:46:33.663Z,0.59
2018-01-14T10:49:03.278Z,0.37
2018-01-14T10:51:32.005Z,0.64
2018-01-14T10:54:00.831Z,0.58
2018-01-14T10:56:29.773Z,0.88
2018-01-14T10:58:59.014Z,1.06
2018-01-14T11:01:31.954Z,1.35
2018-01-14T11:04:00.515Z,2.39
2018-01-14T11:06:29.392Z,1.91
2018-01-14T11:08:58.383Z,1.78
2018-01-14T11:11:27.980Z,1.18
2018-01-14T11:13:56.814Z,1.74
2018-01-14T11:16:25.675Z,1.71
2018-01-14T11:18:54.981Z,2.01
2018-01-14T11:21:23.668Z,1.79
2018-01-14T11:23:54.243Z,2.44
2018-01-14T11:26:22.884Z,1.60
2018-01-14T11:28:52.956Z,1.67
2018-01-14T11:31:22.802Z,1.31
2018-01-14T11:33:52.399Z,1.31
2018-01-14T11:36:22.108Z,1.16
2018-01-14T11:38:51.991Z,1.02
2018-01-14T11:41:21.907Z,1.16
2018-01-14T11:43:50.588Z,1.26
2018-01-14T11:46:19.371Z,1.09
2018-01-14T11:48:48.165Z,1.12
2018-01-14T11:51:16.996Z,1.13
2018-01-14T11:53:47.759Z,0.97
2018-01-14T11:56:21.471Z,1.07
2018-01-14T11:58:51.192Z,1.40
2018-01-14T12:01:21.008Z,1.32
2018-01-14T12:03:49.692Z,1.02
2018-01-14T12:06:19.294Z,1.80
2018-01-14T12:08:48.537Z,5.41
2018-01-14T12:11:17.426Z,4.49
2018-01-14T12:13:46.453Z,4.01
2018-01-14T12:16:16.625Z,3.18
2018-01-14T12:18:46.914Z,2.63
2018-01-14T12:21:16.023Z,2.10
2018-01-14T12:23:44.838Z,1.79
2018-01-14T12:26:18.289Z,1.51
2018-01-14T12:28:47.742Z,1.81
2018-01-14T12:31:16.792Z,1.56
2018-01-14T12:33:54.816Z,1.80
2018-01-14T12:36:23.583Z,1.93
2018-01-14T12:38:52.213Z,1.50
2018-01-14T12:41:21.366Z,1.23
2018-01-14T12:43:50.160Z,1.97
2018-01-14T12:46:18.772Z,1.86
2018-01-14T12:48:51.382Z,1.65
2018-01-14T12:51:20.153Z,1.30
2018-01-14T12:53:48.840Z,1.24
2018-01-14T12:56:17.573Z,1.24
2018-01-14T12:58:46.585Z,1.63
2018-01-14T13:01:15.359Z,1.94
2018-01-14T13:03:44.167Z,3.03
2018-01-14T13:06:12.885Z,4.14
2018-01-14T13:08:41.640Z,2.81
2018-01-14T13:11:10.324Z,2.91
2018-01-14T13:13:44.520Z,2.00
2018-01-14T13:16:13.917Z,3.77
2018-01-14T13:18:42.901Z,2.91
2018-01-14T13:21:11.597Z,2.59
2018-01-14T13:23:40.639Z,1.53
2018-01-14T13:26:09.550Z,2.50
2018-01-14T13:28:38.220Z,3.03
2018-01-14T13:31:07.124Z,3.93
2018-01-14T13:33:36.005Z,4.19
2018-01-14T13:36:04.759Z,2.51
2018-01-14T13:38:33.405Z,3.84
2018-01-14T13:41:02.319Z,4.35
2018-01-14T13:43:30.997Z,5.07
2018-01-14T13:45:59.704Z,4.49
2018-01-14T13:48:30.023Z,3.87
2018-01-14T13:50:58.986Z,3.84
2018-01-14T13:53:27.668Z,2.43
2018-01-14T13:55:56.543Z,2.30
2018-01-14T13:58:25.224Z,3.36
2018-01-14T14:00:53.975Z,2.61
2018-01-14T14:03:22.624Z,2.60
2018-01-14T14:05:51.698Z,1.48
2018-01-14T14:08:20.560Z,0.93
2018-01-14T14:10:49.337Z,2.91
2018-01-14T14:13:24.616Z,2.84
2018-01-14T14:15:53.243Z,2.35
2018-01-14T14:18:21.867Z,2.18
2018-01-14T14:20:50.769Z,2.81
2018-01-14T14:23:19.436Z,1.41
2018-01-14T14:25:48.347Z,0.46
2018-01-14T14:28:17.039Z,0.29
2018-01-14T14:30:45.788Z,0.11
2018-01-14T14:33:14.380Z,0.05
2018-01-14T14:35:43.463Z,0.24
2018-01-14T14:38:12.340Z,0.06
2018-01-14T14:40:41.067Z,0.09
2018-01-14T14:43:10.759Z,0.08
2018-01-14T14:45:39.672Z,0.09
2018-01-14T14:48:08.427Z,-0.15
2018-01-14T14:50:37.256Z,0.00
2018-01-14T14:53:06.116Z,-0.13
2018-01-14T14:55:35.015Z,-0.25
2018-01-14T14:58:03.921Z,-0.01
2018-01-14T15:00:32.517Z,-0.29
2018-01-14T15:03:01.471Z,-0.28
2018-01-14T15:05:30.251Z,-0.46
2018-01-14T15:08:01.352Z,-0.52
2018-01-14T15:10:30.053Z,-0.46
2018-01-14T15:12:58.884Z,-0.42
2018-01-14T15:15:27.416Z,-0.58
2018-01-14T15:17:56.088Z,-0.53
2018-01-14T15:20:24.820Z,-0.64
2018-01-14T15:22:53.608Z,-0.65
2018-01-14T15:25:27.392Z,-0.75
2018-01-14T15:27:58.146Z,-0.62
2018-01-14T15:30:26.923Z,-0.58
2018-01-14T15:32:55.561Z,-0.56
2018-01-14T15:35:24.447Z,-0.79
2018-01-14T15:37:53.140Z,-0.79
2018-01-14T15:40:22.524Z,-0.74
2018-01-14T15:42:51.499Z,-0.76
2018-01-14T15:45:20.251Z,-0.88
2018-01-14T15:47:48.867Z,-0.84
2018-01-14T15:50:17.643Z,-0.92
2018-01-14T15:52:46.258Z,-0.80
2018-01-14T15:55:14.988Z,-0.88
2018-01-14T15:57:43.881Z,-0.93
2018-01-14T16:00:12.763Z,-0.91
2018-01-14T16:02:41.341Z,-0.97
2018-01-14T16:05:10.108Z,-0.84
2018-01-14T16:07:39.027Z,-0.89
2018-01-14T16:10:07.757Z,-1.03
2018-01-14T16:12:36.384Z,-1.03
2018-01-14T16:15:05.968Z,-1.11
2018-01-14T16:17:34.742Z,-0.98
2018-01-14T16:20:04.104Z,-1.06
2018-01-14T16:22:33.212Z,-1.07
2018-01-14T16:25:01.840Z,-1.17
2018-01-14T16:27:30.608Z,-1.22
2018-01-14T16:29:59.380Z,-1.01
2018-01-14T16:32:28.207Z,-1.28
2018-01-14T16:34:56.831Z,-1.08
2018-01-14T16:37:25.418Z,-1.25
2018-01-14T16:39:54.275Z,-1.30
2018-01-14T16:42:23.149Z,-1.27
2018-01-14T16:44:51.887Z,-1.16
2018-01-14T16:47:20.499Z,-1.29
2018-01-14T16:49:49.287Z,-1.28
2018-01-14T16:52:17.971Z,-1.21
2018-01-14T16:54:46.630Z,-1.34
2018-01-14T16:57:22.288Z,-1.23
2018-01-14T16:59:51.441Z,-1.44
2018-01-14T17:02:20.525Z,-1.45
2018-01-14T17:04:49.354Z,-1.44
2018-01-14T17:07:18.099Z,-1.38
2018-01-14T17:09:47.339Z,-1.29
2018-01-14T17:12:15.928Z,-1.47
2018-01-14T17:14:44.460Z,-1.49
2018-01-14T17:17:13.244Z,-1.52
2018-01-14T17:19:42.108Z,-1.53
2018-01-14T17:22:10.804Z,-1.29
2018-01-14T17:24:39.893Z,-1.55
2018-01-14T17:27:08.448Z,-1.55
2018-01-14T17:29:37.255Z,-1.43
2018-01-14T17:32:05.971Z,-1.63
2018-01-14T17:34:34.647Z,-1.61
2018-01-14T17:37:03.232Z,-1.54
2018-01-14T17:39:31.995Z,-1.66
2018-01-14T17:42:03.941Z,-1.64
2018-01-14T17:44:33.052Z,-1.57
2018-01-14T17:47:02.252Z,-1.59
2018-01-14T17:49:30.822Z,-1.53
2018-01-14T17:51:59.440Z,-1.57
2018-01-14T17:54:28.080Z,-1.74
2018-01-14T17:56:56.783Z,-1.78
2018-01-14T17:59:25.799Z,-1.74
2018-01-14T18:01:54.524Z,-1.72
2018-01-14T18:04:23.372Z,-1.82
2018-01-14T18:06:52.090Z,-1.72
2018-01-14T18:09:21.375Z,-1.72
2018-01-14T18:11:50.287Z,-1.73
2018-01-14T18:14:18.996Z,-1.87
2018-01-14T18:16:57.090Z,-1.76
2018-01-14T18:19:25.920Z,-1.70
2018-01-14T18:21:54.719Z,-1.71
2018-01-14T18:24:23.836Z,-1.65
2018-01-14T18:26:52.751Z,-1.64
2018-01-14T18:29:21.977Z,-1.85
2018-01-14T18:31:50.701Z,-1.93
2018-01-14T18:34:19.271Z,-1.76
2018-01-14T18:36:48.189Z,-1.76
2018-01-14T18:39:16.893Z,-1.76
2018-01-14T18:41:45.645Z,-1.79
2018-01-14T18:44:14.248Z,-1.95
2018-01-14T18:46:49.307Z,-1.85
2018-01-14T18:49:18.129Z,-1.85
2018-01-14T18:51:47.313Z,-1.85
2018-01-14T18:54:16.127Z,-1.93
2018-01-14T18:56:44.824Z,-2.03
2018-01-14T18:59:14.198Z,-2.03
2018-01-14T19:01:42.915Z,-1.97
2018-01-14T19:04:11.522Z,-1.92
2018-01-14T19:06:40.427Z,-2.11
2018-01-14T19:09:09.124Z,-2.07
2018-01-14T19:11:37.942Z,-2.01
2018-01-14T19:14:06.675Z,-2.07
2018-01-14T19:16:35.559Z,-2.06
2018-01-14T19:19:04.320Z,-1.94
2018-01-14T19:21:33.804Z,-2.12
2018-01-14T19:24:04.275Z,-2.05
2018-01-14T19:26:34.257Z,-2.12
2018-01-14T19:29:03.303Z,-2.12
2018-01-14T19:31:31.819Z,-2.20
2018-01-14T19:34:00.459Z,-2.21
2018-01-14T19:36:29.180Z,-2.07
2018-01-14T19:38:57.868Z,-2.22
2018-01-14T19:41:26.595Z,-2.14
2018-01-14T19:43:55.639Z,-2.24
2018-01-14T19:46:24.328Z,-2.30
2018-01-14T19:48:53.229Z,-2.30
2018-01-14T19:51:22.079Z,-2.24
2018-01-14T19:53:50.747Z,-2.08
2018-01-14T19:56:19.658Z,-2.24
2018-01-14T19:58:48.727Z,-2.04
2018-01-14T20:01:17.427Z,-2.12
2018-01-14T20:03:46.127Z,-2.13
2018-01-14T20:06:16.863Z,-2.18
2018-01-14T20:08:46.464Z,-1.98
2018-01-14T20:11:15.280Z,-2.09
2018-01-14T20:13:45.617Z,-2.07
2018-01-14T20:16:15.263Z,-1.94
2018-01-14T20:18:44.138Z,-1.94
2018-01-14T20:21:13.065Z,-1.92
2018-01-14T20:23:41.920Z,-1.90
2018-01-14T20:26:10.695Z,-1.89
2018-01-14T20:28:39.509Z,-2.04
2018-01-14T20:31:08.279Z,-1.91
2018-01-14T20:33:37.108Z,-2.04
2018-01-14T20:36:05.929Z,-1.93
2018-01-14T20:38:34.520Z,-1.94
2018-01-14T20:41:03.360Z,-1.93
2018-01-14T20:43:33.418Z,-2.20
2018-01-14T20:46:01.976Z,-1.96
2018-01-14T20:48:30.855Z,-2.07
2018-01-14T20:50:59.580Z,-1.96
2018-01-14T20:53:28.213Z,-1.85
2018-01-14T20:55:57.120Z,-2.03
2018-01-14T20:58:31.260Z,-1.83
2018-01-14T21:01:06.765Z,-1.78
2018-01-14T21:03:35.630Z,-1.83
2018-01-14T21:06:04.419Z,-1.94
2018-01-14T21:08:33.226Z,-1.91
2018-01-14T21:11:01.778Z,-2.06
2018-01-14T21:13:30.569Z,-1.97
2018-01-14T21:15:59.140Z,-1.89
2018-01-14T21:18:27.978Z,-1.93
2018-01-14T21:20:56.745Z,-1.82
2018-01-14T21:23:25.723Z,-1.80
2018-01-14T21:25:54.333Z,-1.89
2018-01-14T21:28:22.975Z,-1.87
2018-01-14T21:30:51.817Z,-1.88
2018-01-14T21:33:20.656Z,-2.05
2018-01-14T21:35:49.610Z,-2.00
2018-01-14T21:38:18.481Z,-1.90
2018-01-14T21:40:47.239Z,-1.78
2018-01-14T21:43:16.072Z,-1.82
2018-01-14T21:45:45.254Z,-1.96
2018-01-14T21:48:13.771Z,-1.70
2018-01-14T21:50:43.305Z,-1.90
2018-01-14T21:53:12.304Z,-1.85
2018-01-14T21:55:43.222Z,-1.71
2018-01-14T21:58:12.908Z,-1.87
2018-01-14T22:00:42.412Z,-1.61
2018-01-14T22:03:11.457Z,-1.77
2018-01-14T22:05:43.262Z,-1.78
2018-01-14T22:08:11.924Z,-1.68
2018-01-14T22:10:40.833Z,-1.87
2018-01-14T22:13:09.806Z,-1.67
2018-01-14T22:15:38.607Z,-1.78
2018-01-14T22:18:07.329Z,-1.84
2018-01-14T22:20:36.032Z,-1.77
2018-01-14T22:23:05.075Z,-1.86
2018-01-14T22:25:33.854Z,-1.90
2018-01-14T22:28:02.858Z,-1.79
2018-01-14T22:30:31.964Z,-1.83
2018-01-14T22:33:00.814Z,-1.65
2018-01-14T22:35:29.404Z,-1.76
2018-01-14T22:37:58.279Z,-1.65
2018-01-14T22:40:26.958Z,-1.76
2018-01-14T22:42:55.972Z,-1.88
2018-01-14T22:45:25.062Z,-1.92
2018-01-14T22:47:54.607Z,-1.79
2018-01-14T22:50:23.683Z,-1.65
2018-01-14T22:52:52.552Z,-1.84
2018-01-14T22:55:21.732Z,-1.84
2018-01-14T22:57:50.443Z,-1.79
2018-01-14T23:00:19.738Z,-1.82
2018-01-14T23:02:48.922Z,-1.64
2018-01-14T23:05:18.144Z,-1.65
2018-01-14T23:07:50.091Z,-1.64
2018-01-14T23:10:19.327Z,-1.84
2018-01-14T23:12:49.335Z,-1.69
2018-01-14T23:15:19.957Z,-1.85
2018-01-14T23:17:48.626Z,-1.66
2018-01-14T23:20:17.184Z,-1.64
2018-01-14T23:22:45.987Z,-1.67
2018-01-14T23:25:14.922Z,-1.73
2018-01-14T23:27:43.971Z,-1.56
2018-01-14T23:30:12.782Z,-1.64
2018-01-14T23:32:42.269Z,-1.65
2018-01-14T23:35:11.441Z,-1.62
2018-01-14T23:37:43.043Z,-1.65
2018-01-14T23:40:12.178Z,-1.62
2018-01-14T23:42:41.284Z,-1.64
2018-01-14T23:45:10.058Z,-1.57
2018-01-14T23:47:39.116Z,-1.72
2018-01-14T23:50:08.043Z,-1.74
2018-01-14T23:52:36.761Z,-1.78
2018-01-14T23:55:10.329Z,-1.80
2018-01-14T23:57:41.388Z,-1.80
